createdAt,value
2022-10-09T00:00:10.604Z,99668.78
2022-10-09T00:05:15.815Z,99668.34
2022-10-09T00:10:19.138Z,99666.69
2022-10-09T00:15:21.411Z,99664.66
2022-10-09T00:20:28.076Z,99667.66
2022-10-09T00:25:40.334Z,99671.34
2022-10-09T00:30:43.238Z,99669.66
2022-10-09T00:35:48.769Z,99667.72
2022-10-09T00:40:53.304Z,99661.72
2022-10-09T00:45:58.639Z,99671.47
2022-10-09T00:51:03.295Z,99671.63
2022-10-09T00:56:06.792Z,99665.69
2022-10-09T01:06:54.926Z,99670.78
2022-10-09T01:12:19.031Z,99661.09
2022-10-09T01:17:26.440Z,99666.47
2022-10-09T01:22:46.693Z,99657.91
2022-10-09T01:27:49.659Z,99653.50
2022-10-09T01:32:55.280Z,99651.69
2022-10-09T01:43:14.045Z,99643.34
2022-10-09T01:48:27.570Z,99653.81
2022-10-09T01:53:30.274Z,99644.06
2022-10-09T01:58:49.881Z,99646.59
2022-10-09T02:03:55.205Z,99646.00
2022-10-09T02:08:58.770Z,99639.09
2022-10-09T02:14:01.108Z,99642.19
2022-10-09T02:19:06.396Z,99645.28
2022-10-09T02:24:16.462Z,99647.84
2022-10-09T02:29:18.816Z,99641.75
2022-10-09T02:34:29.447Z,99643.94
2022-10-09T02:39:31.818Z,99646.00
2022-10-09T02:44:34.815Z,99645.75
2022-10-09T02:49:40.555Z,99651.19
2022-10-09T02:54:43.757Z,99636.56
2022-10-09T02:59:46.015Z,99637.66
2022-10-09T03:04:48.252Z,99650.75
2022-10-09T03:09:53.003Z,99652.44
2022-10-09T03:15:00.046Z,99656.28
2022-10-09T03:20:02.310Z,99660.25
2022-10-09T03:25:04.768Z,99655.00
2022-10-09T03:30:07.362Z,99657.16
2022-10-09T03:35:09.727Z,99644.38
2022-10-09T03:40:12.351Z,99638.50
2022-10-09T03:45:20.307Z,99641.66
2022-10-09T03:55:49.843Z,99642.78
2022-10-09T04:00:54.359Z,99645.53
2022-10-09T04:05:56.666Z,99648.44
2022-10-09T04:11:01.273Z,99648.72
2022-10-09T04:16:05.597Z,99640.25
2022-10-09T04:21:09.555Z,99644.06
2022-10-09T04:26:15.239Z,99647.44
2022-10-09T04:31:22.595Z,99635.53
2022-10-09T04:36:31.544Z,99640.91
2022-10-09T04:41:39.721Z,99640.13
2022-10-09T04:46:42.084Z,99640.13
2022-10-09T04:51:49.510Z,99651.91
2022-10-09T04:56:51.694Z,99649.38
2022-10-09T05:01:54.412Z,99660.41
2022-10-09T05:12:13.855Z,99675.97
2022-10-09T05:17:17.940Z,99674.25
2022-10-09T05:22:22.957Z,99679.47
2022-10-09T05:27:25.229Z,99677.63
2022-10-09T05:32:28.343Z,99681.03
2022-10-09T05:37:33.493Z,99696.34
2022-10-09T05:42:37.382Z,99701.03
2022-10-09T05:47:49.776Z,99723.50
2022-10-09T05:52:52.812Z,99730.78
2022-10-09T05:57:55.077Z,99723.63
2022-10-09T06:03:00.516Z,99729.72
2022-10-09T06:08:14.503Z,99746.59
2022-10-09T06:13:16.879Z,99752.91
2022-10-09T06:18:19.222Z,99751.72
2022-10-09T06:23:24.415Z,99749.09
2022-10-09T06:28:28.345Z,99742.38
2022-10-09T06:33:43.163Z,99741.78
2022-10-09T06:38:49.303Z,99723.44
2022-10-09T06:43:59.812Z,99716.50
2022-10-09T06:49:08.419Z,99712.88
2022-10-09T06:54:14.151Z,99715.91
2022-10-09T06:59:16.454Z,99710.56
2022-10-09T07:04:22.177Z,99716.72
2022-10-09T07:09:30.267Z,99726.81
2022-10-09T07:14:32.529Z,99721.72
2022-10-09T07:19:35.275Z,99715.69
2022-10-09T07:24:37.807Z,99718.69
2022-10-09T07:29:46.318Z,99714.41
2022-10-09T07:34:50.767Z,99699.75
2022-10-09T07:39:57.358Z,99705.38
2022-10-09T07:44:59.600Z,99710.34
2022-10-09T07:50:06.046Z,99709.28
2022-10-09T07:55:09.873Z,99699.28
2022-10-09T08:00:16.306Z,99703.78
2022-10-09T08:05:22.561Z,99707.72
2022-10-09T08:10:28.089Z,99697.66
2022-10-09T08:15:37.314Z,99706.91
2022-10-09T08:20:43.805Z,99709.69
2022-10-09T08:25:47.709Z,99704.34
2022-10-09T08:30:49.983Z,99705.56
2022-10-09T08:35:52.600Z,99710.03
2022-10-09T08:41:04.979Z,99693.72
2022-10-09T08:46:20.755Z,99690.72
2022-10-09T08:51:25.167Z,99681.84
2022-10-09T08:56:36.429Z,99679.38
2022-10-09T09:01:48.440Z,99671.66
2022-10-09T09:07:05.945Z,99678.25
2022-10-09T09:12:34.606Z,99680.31
2022-10-09T09:17:46.885Z,99674.13
2022-10-09T09:22:50.305Z,99684.69
2022-10-09T09:27:55.185Z,99692.16
2022-10-09T09:33:18.847Z,99698.25
2022-10-09T09:38:21.216Z,99695.53
2022-10-09T09:43:25.463Z,99688.47
2022-10-09T09:48:41.497Z,99671.03
2022-10-09T09:53:50.198Z,99684.06
2022-10-09T09:58:53.369Z,99689.19
2022-10-09T10:04:00.019Z,99686.78
2022-10-09T10:09:06.236Z,99690.00
2022-10-09T10:14:09.439Z,99688.97
2022-10-09T10:19:21.667Z,99686.47
2022-10-09T10:24:27.941Z,99690.16
2022-10-09T10:29:45.653Z,99696.91
2022-10-09T10:34:52.599Z,99686.94
2022-10-09T10:40:14.523Z,99699.06
2022-10-09T10:45:19.484Z,99679.31
2022-10-09T10:50:32.276Z,99673.34
2022-10-09T10:55:37.282Z,99666.88
2022-10-09T11:00:54.225Z,99671.06
2022-10-09T11:06:17.849Z,99670.47
2022-10-09T11:18:34.558Z,99663.22
2022-10-09T11:23:50.059Z,99654.50
2022-10-09T11:28:54.806Z,99657.81
2022-10-09T11:34:03.610Z,99640.47
2022-10-09T11:39:13.411Z,99633.75
2022-10-09T11:44:19.679Z,99627.16
2022-10-09T11:49:26.258Z,99616.19
2022-10-09T11:54:29.055Z,99605.22
2022-10-09T11:59:34.019Z,99596.59
2022-10-09T12:04:54.445Z,99588.78
2022-10-09T12:10:04.383Z,99586.69
2022-10-09T12:15:27.289Z,99580.31
2022-10-09T12:20:32.463Z,99581.59
2022-10-09T12:25:41.025Z,99568.97
2022-10-09T12:30:48.525Z,99567.44
2022-10-09T12:36:12.997Z,99553.28
2022-10-09T12:41:43.475Z,99539.53
2022-10-09T12:46:45.856Z,99540.56
2022-10-09T12:51:55.381Z,99550.72
2022-10-09T12:57:04.236Z,99534.41
2022-10-09T13:02:11.288Z,99541.38
2022-10-09T13:07:19.851Z,99537.78
2022-10-09T13:12:28.559Z,99534.38
2022-10-09T13:17:33.671Z,99537.13
2022-10-09T13:22:36.149Z,99528.38
2022-10-09T13:27:39.410Z,99530.81
2022-10-09T13:32:42.335Z,99528.00
2022-10-09T13:37:45.421Z,99528.34
2022-10-09T13:42:51.548Z,99521.31
2022-10-09T13:47:54.975Z,99522.47
2022-10-09T13:52:57.214Z,99529.00
2022-10-09T13:58:01.694Z,99518.41
2022-10-09T14:03:06.401Z,99521.16
2022-10-09T14:08:10.096Z,99526.94
2022-10-09T14:13:14.681Z,99513.44
2022-10-09T14:18:29.909Z,99515.81
2022-10-09T14:23:32.192Z,99520.63
2022-10-09T14:28:35.456Z,99518.84
2022-10-09T14:33:37.809Z,99523.88
2022-10-09T14:38:41.133Z,99520.66
2022-10-09T14:43:45.605Z,99512.66
2022-10-09T14:48:50.544Z,99516.47
2022-10-09T14:53:58.258Z,99518.13
2022-10-09T14:59:05.535Z,99527.38
2022-10-09T15:04:09.155Z,99526.94
2022-10-09T15:09:11.471Z,99515.34
2022-10-09T15:20:36.859Z,99512.84
2022-10-09T15:25:40.436Z,99509.66
2022-10-09T15:30:48.791Z,99503.31
2022-10-09T15:35:55.672Z,99500.44
2022-10-09T15:40:57.896Z,99515.56
2022-10-09T15:52:54.873Z,99517.47
2022-10-09T15:57:57.083Z,99514.13
2022-10-09T16:03:00.353Z,99518.84
2022-10-09T16:08:02.567Z,99529.72
2022-10-09T16:13:07.038Z,99528.50
2022-10-09T16:18:10.408Z,99532.41
2022-10-09T16:23:14.047Z,99542.16
2022-10-09T16:28:19.311Z,99548.63
2022-10-09T16:33:21.943Z,99551.72
2022-10-09T16:38:25.021Z,99536.81
2022-10-09T16:43:30.147Z,99541.03
2022-10-09T16:48:37.130Z,99538.41
2022-10-09T16:53:39.922Z,99527.13
2022-10-09T16:58:42.928Z,99528.19
2022-10-09T17:03:46.386Z,99528.47
2022-10-09T17:08:53.627Z,99536.59
2022-10-09T17:14:01.162Z,99545.16
2022-10-09T17:19:07.090Z,99542.94
2022-10-09T17:24:13.009Z,99545.94
2022-10-09T17:29:16.284Z,99551.13
2022-10-09T17:34:23.034Z,99554.88
2022-10-09T17:39:28.455Z,99557.69
2022-10-09T17:44:32.091Z,99560.69
2022-10-09T17:49:44.278Z,99561.25
2022-10-09T17:54:46.842Z,99559.19
2022-10-09T17:59:49.433Z,99547.97
2022-10-09T18:04:57.341Z,99549.34
2022-10-09T18:10:03.799Z,99550.38
2022-10-09T18:15:13.861Z,99547.09
2022-10-09T18:20:17.006Z,99546.78
2022-10-09T18:25:19.369Z,99545.13
2022-10-09T18:30:23.450Z,99559.94
2022-10-09T18:35:30.411Z,99560.13
2022-10-09T18:40:39.795Z,99567.09
2022-10-09T18:45:46.054Z,99569.59
2022-10-09T18:50:48.737Z,99576.94
2022-10-09T18:55:53.132Z,99582.00
2022-10-09T19:00:55.420Z,99581.97
2022-10-09T19:05:57.823Z,99582.13
2022-10-09T19:11:00.239Z,99584.78
2022-10-09T19:16:06.303Z,99592.28
2022-10-09T19:21:16.063Z,99587.56
2022-10-09T19:26:19.917Z,99594.13
2022-10-09T19:31:28.102Z,99604.13
2022-10-09T19:36:34.538Z,99604.56
2022-10-09T19:41:37.990Z,99616.13
2022-10-09T19:46:49.937Z,99615.81
2022-10-09T19:51:52.148Z,99612.06
2022-10-09T19:56:54.429Z,99602.34
2022-10-09T20:01:57.750Z,99603.00
2022-10-09T20:07:00.039Z,99613.03
2022-10-09T20:12:04.300Z,99607.59
2022-10-09T20:17:10.638Z,99601.72
2022-10-09T20:22:12.927Z,99595.63
2022-10-09T20:27:15.337Z,99596.75
2022-10-09T20:32:21.594Z,99600.16
2022-10-09T20:37:23.966Z,99594.97
2022-10-09T20:42:29.088Z,99594.97
2022-10-09T20:47:31.409Z,99584.91
2022-10-09T20:52:33.770Z,99584.09
2022-10-09T20:57:36.896Z,99594.44
2022-10-09T21:02:39.175Z,99582.56
2022-10-09T21:07:44.227Z,99597.72
2022-10-09T21:12:47.501Z,99596.56
2022-10-09T21:17:50.025Z,99598.19
2022-10-09T21:22:58.084Z,99599.81
2022-10-09T21:28:03.757Z,99605.81
2022-10-09T21:33:06.819Z,99605.97
2022-10-09T21:38:10.614Z,99604.19
2022-10-09T21:43:16.601Z,99603.66
2022-10-09T21:48:19.646Z,99591.06
2022-10-09T21:53:21.848Z,99588.88
2022-10-09T21:58:24.120Z,99586.78
2022-10-09T22:03:35.782Z,99588.44
2022-10-09T22:08:43.635Z,99592.56
2022-10-09T22:13:48.061Z,99592.03
2022-10-09T22:18:50.361Z,99594.13
2022-10-09T22:23:56.607Z,99590.69
2022-10-09T22:28:58.989Z,99598.56
2022-10-09T22:34:01.704Z,99600.75
2022-10-09T22:39:05.674Z,99594.97
2022-10-09T22:44:19.292Z,99605.03
2022-10-09T22:49:21.562Z,99608.97
2022-10-09T22:54:26.232Z,99609.13
2022-10-09T22:59:28.707Z,99607.91
2022-10-09T23:04:31.846Z,99608.94
2022-10-09T23:09:46.861Z,99607.22
2022-10-09T23:14:52.032Z,99598.44
2022-10-09T23:19:55.615Z,99604.25
2022-10-09T23:25:00.500Z,99588.09
2022-10-09T23:30:02.817Z,99583.69
2022-10-09T23:35:09.555Z,99596.88
2022-10-09T23:40:13.353Z,99591.84
2022-10-09T23:45:18.617Z,99589.13
2022-10-09T23:50:20.864Z,99592.75
2022-10-09T23:55:25.642Z,99586.94
